Time;durP1;ratioP1;P1;durP2;ratioP2;P2;SDS_P1;SDS_P2;PMS_P1;PMS_P2;Temp;Humidity;BMP_temperature;BMP_pressure;BME280_temperature;BME280_humidity;BME280_pressure;Samples;Min_cycle;Max_cycle;Signal;HPM_P1;HPM_P2
2024/03/04 00:01:48;;;;;;;30.15;15.38;;;;;;;5.40;67.61;99821.78;1643619;86;25631;-65
2024/03/04 00:04:14;;;;;;;26.42;14.53;;;;;;;5.36;67.77;99822.10;1641614;86;27333;-63
2024/03/04 00:06:40;;;;;;;27.70;15.48;;;;;;;5.31;67.87;99817.31;1643276;86;26506;-64
2024/03/04 00:09:08;;;;;;;34.90;15.90;;;;;;;5.26;67.83;99818.71;1647334;86;25498;-64
2024/03/04 00:11:36;;;;;;;27.77;14.68;;;;;;;5.20;68.02;99817.42;1645963;86;25480;-64
2024/03/04 00:14:03;;;;;;;27.85;15.93;;;;;;;5.15;68.04;99810.78;1637783;86;25766;-64
2024/03/04 00:16:29;;;;;;;36.77;15.60;;;;;;;5.13;68.03;99812.16;1644301;87;27360;-64
2024/03/04 00:19:02;;;;;;;26.00;14.80;;;;;;;5.08;68.27;99805.52;1645839;86;25757;-64
2024/03/04 00:21:27;;;;;;;28.83;15.35;;;;;;;5.03;68.29;99804.46;1644365;86;25512;-64
2024/03/04 00:23:55;;;;;;;27.10;15.72;;;;;;;4.99;68.23;99795.95;1651091;86;25644;-64
2024/03/04 00:26:21;;;;;;;24.75;14.28;;;;;;;4.96;68.31;99789.27;1643330;86;25907;-64
2024/03/04 00:28:48;;;;;;;30.08;14.68;;;;;;;4.94;68.47;99787.94;1644940;86;27181;-64
2024/03/04 00:31:14;;;;;;;32.03;15.63;;;;;;;4.88;68.39;99788.53;1646889;86;25590;-64
2024/03/04 00:33:40;;;;;;;27.42;15.65;;;;;;;4.83;68.64;99789.38;1649849;86;25639;-64
2024/03/04 00:36:07;;;;;;;24.82;15.10;;;;;;;4.80;68.72;99792.64;1649896;86;25840;-65
2024/03/04 00:38:33;;;;;;;27.58;15.35;;;;;;;4.78;68.82;99796.67;1646118;86;25471;-65
2024/03/04 00:40:59;;;;;;;26.07;15.88;;;;;;;4.74;69.09;99792.97;1643145;86;27353;-64
2024/03/04 00:43:26;;;;;;;26.90;14.55;;;;;;;4.68;69.16;99794.35;1643981;86;25851;-64
2024/03/04 00:45:52;;;;;;;29.55;16.07;;;;;;;4.66;69.25;99789.80;1643856;85;25702;-64
2024/03/04 00:48:19;;;;;;;26.97;15.18;;;;;;;4.64;69.39;99790.63;1646760;86;25423;-64
2024/03/04 00:50:45;;;;;;;25.82;15.48;;;;;;;4.63;69.63;99788.22;1649343;86;25495;-64
2024/03/04 00:53:12;;;;;;;30.25;16.45;;;;;;;4.61;69.73;99793.86;1643025;86;26972;-64
2024/03/04 00:55:38;;;;;;;32.80;16.73;;;;;;;4.61;70.00;99795.20;1646280;85;25785;-64
2024/03/04 00:58:05;;;;;;;28.75;16.37;;;;;;;4.62;70.25;99793.34;1646345;86;25606;-64
2024/03/04 01:00:31;;;;;;;31.75;15.55;;;;;;;4.62;70.32;99800.03;1644343;86;25893;-64
2024/03/04 01:02:57;;;;;;;26.45;15.15;;;;;;;4.63;70.19;99794.92;1643328;86;25860;-66
2024/03/04 01:05:23;;;;;;;27.52;15.90;;;;;;;4.62;70.22;99792.00;1641511;86;27693;-64
2024/03/04 01:07:50;;;;;;;29.30;15.55;;;;;;;4.64;70.28;99792.52;1644270;86;25536;-64
2024/03/04 01:10:18;;;;;;;30.00;16.17;;;;;;;4.64;70.11;99796.53;1646113;86;25611;-64
2024/03/04 01:12:44;;;;;;;28.02;16.27;;;;;;;4.65;70.13;99796.80;1646577;86;25823;-64
2024/03/04 01:15:11;;;;;;;30.30;15.70;;;;;;;4.63;70.35;99794.40;1646628;86;25439;-64
2024/03/04 01:17:38;;;;;;;25.17;15.53;;;;;;;4.62;70.58;99791.45;1645286;86;27718;-64
2024/03/04 01:20:10;;;;;;;24.52;15.18;;;;;;;4.63;70.66;99795.74;1650778;86;25650;-64
2024/03/04 01:22:34;;;;;;;25.92;16.02;;;;;;;4.62;70.65;99795.47;1643300;86;25763;-64
2024/03/04 01:25:01;;;;;;;24.77;15.30;;;;;;;4.63;70.70;99793.58;1645863;86;25572;-64
2024/03/04 01:27:28;;;;;;;28.75;16.25;;;;;;;4.62;70.71;99790.66;1643348;86;25575;-64
2024/03/04 01:29:54;;;;;;;29.82;15.88;;;;;;;4.63;70.65;99784.20;1644915;86;28391;-64
2024/03/04 01:32:24;;;;;;;30.27;15.00;;;;;;;4.64;70.70;99780.45;1644190;87;25889;-65
2024/03/04 01:34:49;;;;;;;31.30;16.12;;;;;;;4.64;70.76;99777.78;1644328;86;25501;-65
2024/03/04 01:37:16;;;;;;;25.00;15.50;;;;;;;4.64;70.86;99780.45;1644885;86;26164;-65
2024/03/04 01:39:42;;;;;;;29.18;15.25;;;;;;;4.64;70.80;99777.78;1637606;86;25500;-65
2024/03/04 01:42:08;;;;;;;33.50;15.78;;;;;;;4.65;70.87;99779.39;1642501;86;27325;-65
2024/03/04 01:44:38;;;;;;;27.67;15.28;;;;;;;4.67;70.95;99775.88;1644477;86;25657;-65
2024/03/04 01:47:07;;;;;;;27.37;14.63;;;;;;;4.68;70.96;99777.46;1644958;86;25863;-64
2024/03/04 01:49:38;;;;;;;31.75;16.48;;;;;;;4.68;70.92;99772.92;1646392;86;25536;-65
2024/03/04 01:52:07;;;;;;;26.42;15.83;;;;;;;4.72;71.00;99775.05;1637578;86;25512;-64
2024/03/04 01:54:38;;;;;;;25.62;15.55;;;;;;;4.72;70.95;99773.16;1644762;86;27911;-64
2024/03/04 01:57:08;;;;;;;28.35;16.25;;;;;;;4.71;70.92;99768.08;1627645;87;25676;-65
2024/03/04 01:59:36;;;;;;;31.80;16.48;;;;;;;4.69;70.99;99776.39;1648157;86;25887;-64
2024/03/04 02:02:03;;;;;;;27.32;15.70;;;;;;;4.68;71.13;99780.14;1643830;86;25528;-64
2024/03/04 02:04:31;;;;;;;29.48;16.17;;;;;;;4.68;71.04;99779.62;1645998;86;25449;-64
2024/03/04 02:06:59;;;;;;;31.45;16.10;;;;;;;4.68;71.16;99770.77;1644941;86;27361;-64
2024/03/04 02:09:27;;;;;;;26.90;15.88;;;;;;;4.68;71.26;99771.58;1645991;86;25516;-64
2024/03/04 02:11:55;;;;;;;28.90;15.75;;;;;;;4.65;71.22;99766.78;1644251;86;25590;-64
2024/03/04 02:14:23;;;;;;;28.02;15.20;;;;;;;4.65;71.29;99769.46;1644047;86;25866;-63
2024/03/04 02:16:50;;;;;;;28.77;15.70;;;;;;;4.63;71.44;99762.25;1645175;86;25670;-64
2024/03/04 02:19:18;;;;;;;26.70;15.80;;;;;;;4.62;71.61;99761.98;1644936;86;27314;-64
2024/03/04 02:22:01;;;;;;;28.73;16.97;;;;;;;4.60;71.67;99761.47;1644073;86;25856;-64
2024/03/04 02:24:28;;;;;;;22.27;15.23;;;;;;;4.58;71.91;99773.53;1644324;86;25854;-64
2024/03/04 02:26:55;;;;;;;25.77;16.02;;;;;;;4.58;72.31;99779.71;1645777;86;25654;-64
2024/03/04 02:29:22;;;;;;;27.25;15.53;;;;;;;4.58;72.24;99780.23;1643786;86;25591;-64
2024/03/04 02:31:49;;;;;;;26.70;15.55;;;;;;;4.59;72.39;99786.65;1644028;86;27325;-64
2024/03/04 02:34:16;;;;;;;31.68;15.88;;;;;;;4.58;72.59;99779.71;1647508;86;25902;-63
2024/03/04 02:36:43;;;;;;;29.85;16.20;;;;;;;4.57;72.55;99784.80;1645637;86;25302;-64
2024/03/04 02:39:12;;;;;;;28.92;16.40;;;;;;;4.58;72.73;99780.23;1647734;86;25617;-64
2024/03/04 02:41:40;;;;;;;26.70;16.52;;;;;;;4.57;72.77;99778.10;1640721;86;25861;-63
2024/03/04 02:44:07;;;;;;;28.65;15.63;;;;;;;4.56;72.73;99774.36;1646393;86;27394;-65
2024/03/04 02:46:34;;;;;;;29.00;15.55;;;;;;;4.56;72.71;99769.80;1649160;86;25658;-64
2024/03/04 02:49:02;;;;;;;25.32;15.03;;;;;;;4.56;72.75;99776.48;1645049;86;25987;-64
2024/03/04 02:51:29;;;;;;;25.08;14.93;;;;;;;4.55;72.75;99774.91;1645986;86;26106;-63
2024/03/04 02:53:57;;;;;;;25.37;15.90;;;;;;;4.55;72.81;99776.80;1646114;86;25494;-65
2024/03/04 02:56:24;;;;;;;28.38;14.13;;;;;;;4.54;72.86;99780.55;1649519;86;27523;-64
2024/03/04 02:58:51;;;;;;;28.10;15.08;;;;;;;4.52;73.11;99780.83;1644202;86;25847;-64
2024/03/04 03:01:18;;;;;;;28.80;15.80;;;;;;;4.52;73.06;99778.14;1647932;86;25576;-64
2024/03/04 03:03:44;;;;;;;26.12;16.02;;;;;;;4.53;73.06;99786.97;1625716;86;25610;-63
2024/03/04 03:06:10;;;;;;;25.77;15.68;;;;;;;4.54;73.09;99789.92;1646205;86;25481;-65
2024/03/04 03:08:37;;;;;;;30.43;15.45;;;;;;;4.54;73.11;99790.70;1645413;86;27414;-64
2024/03/04 03:11:04;;;;;;;28.42;15.13;;;;;;;4.56;73.16;99799.26;1647619;86;25534;-64
2024/03/04 03:13:30;;;;;;;23.73;14.90;;;;;;;4.57;73.24;99788.81;1646155;86;25874;-64
2024/03/04 03:15:57;;;;;;;27.55;15.32;;;;;;;4.59;73.23;99781.84;1645696;86;25904;-64
2024/03/04 03:18:23;;;;;;;26.37;15.98;;;;;;;4.62;73.22;99775.92;1645842;86;25433;-64
2024/03/04 03:20:51;;;;;;;31.35;14.58;;;;;;;4.60;73.13;99769.51;1646503;86;27344;-65
2024/03/04 03:23:18;;;;;;;27.62;15.65;;;;;;;4.58;73.21;99773.02;1645939;86;26430;-65
2024/03/04 03:25:44;;;;;;;30.80;15.75;;;;;;;4.58;73.16;99784.25;1649165;86;25791;-65
2024/03/04 03:28:10;;;;;;;24.12;15.00;;;;;;;4.59;73.25;99787.20;1643904;86;25640;-65
2024/03/04 03:30:36;;;;;;;24.35;14.60;;;;;;;4.59;73.36;99781.84;1648134;86;25514;-65
2024/03/04 03:33:04;;;;;;;27.87;15.45;;;;;;;4.59;73.47;99778.61;1645067;86;28047;-65
2024/03/04 03:35:30;;;;;;;31.15;17.00;;;;;;;4.61;73.42;99783.69;1645352;86;25699;-65
2024/03/04 03:37:56;;;;;;;32.08;18.52;;;;;;;4.61;73.54;99775.11;1646220;86;25478;-65
2024/03/04 03:40:23;;;;;;;35.23;18.92;;;;;;;4.63;73.83;99774.31;1647222;85;25718;-65
2024/03/04 03:42:49;;;;;;;31.75;15.88;;;;;;;4.62;73.77;99776.72;1647339;86;25598;-65
2024/03/04 03:45:15;;;;;;;27.00;16.00;;;;;;;4.60;73.84;99774.86;1645644;86;27769;-65
2024/03/04 03:47:42;;;;;;;28.95;15.40;;;;;;;4.59;73.98;99763.88;1644007;86;25560;-65
2024/03/04 03:50:09;;;;;;;25.70;15.75;;;;;;;4.61;73.99;99778.33;1646190;86;25437;-65
2024/03/04 03:52:35;;;;;;;31.97;16.75;;;;;;;4.59;74.15;99781.30;1644372;87;25838;-65
2024/03/04 03:55:02;;;;;;;29.00;16.05;;;;;;;4.58;74.35;99779.71;1640356;86;25723;-65
2024/03/04 03:57:28;;;;;;;29.77;16.95;;;;;;;4.60;74.58;99778.88;1649957;85;27350;-64
2024/03/04 03:59:55;;;;;;;27.85;16.82;;;;;;;4.60;74.67;99770.84;1651943;86;25567;-64
2024/03/04 04:02:21;;;;;;;30.50;16.65;;;;;;;4.61;74.81;99771.09;1640842;86;25916;-64
2024/03/04 04:04:47;;;;;;;28.83;16.57;;;;;;;4.63;75.32;99772.15;1637881;86;25711;-65
2024/03/04 04:07:13;;;;;;;35.08;17.32;;;;;;;4.65;75.56;99772.69;1647693;86;25428;-65
2024/03/04 04:09:39;;;;;;;28.70;16.60;;;;;;;4.66;75.67;99775.06;1649924;86;27317;-65
2024/03/04 04:12:08;;;;;;;33.58;17.20;;;;;;;4.65;76.06;99775.37;1643399;86;25841;-65
2024/03/04 04:14:34;;;;;;;32.70;18.62;;;;;;;4.62;76.28;99773.25;1644586;86;25765;-66
2024/03/04 04:17:01;;;;;;;32.75;16.48;;;;;;;4.60;76.63;99776.75;1644512;86;25539;-66
2024/03/04 04:19:28;;;;;;;32.28;18.57;;;;;;;4.54;77.03;99780.00;1649967;86;25646;-66
2024/03/04 04:21:55;;;;;;;31.80;18.55;;;;;;;4.53;77.53;99789.13;1645695;86;27701;-66
2024/03/04 04:24:21;;;;;;;38.92;21.35;;;;;;;4.52;77.70;99787.52;1645110;86;25580;-66
2024/03/04 04:26:47;;;;;;;33.75;19.52;;;;;;;4.51;78.09;99783.78;1645792;86;25635;-66
2024/03/04 04:29:13;;;;;;;37.73;18.42;;;;;;;4.46;78.30;99789.45;1648147;86;26121;-66
2024/03/04 04:31:40;;;;;;;31.57;18.87;;;;;;;4.43;78.59;99786.53;1645082;86;25548;-67
2024/03/04 04:34:06;;;;;;;35.08;18.07;;;;;;;4.41;78.97;99791.34;1645828;86;27898;-66
2024/03/04 04:36:32;;;;;;;32.48;18.12;;;;;;;4.37;79.11;99789.77;1645055;86;25650;-66
2024/03/04 04:38:58;;;;;;;38.67;20.20;;;;;;;4.37;79.19;99783.08;1646555;86;25524;-66
2024/03/04 04:41:24;;;;;;;32.35;19.15;;;;;;;4.35;79.58;99791.14;1645672;86;25907;-66
2024/03/04 04:43:52;;;;;;;35.73;20.68;;;;;;;4.36;79.67;99794.06;1647489;86;25486;-66
2024/03/04 04:46:20;;;;;;;36.48;18.98;;;;;;;4.36;79.87;99791.39;1644449;86;28177;-66
2024/03/04 04:48:46;;;;;;;29.85;18.57;;;;;;;4.34;80.16;99794.89;1642292;86;25854;-66
2024/03/04 04:51:13;;;;;;;35.98;18.95;;;;;;;4.32;80.20;99807.77;1648086;85;25508;-65
2024/03/04 04:53:39;;;;;;;33.30;18.82;;;;;;;4.31;80.27;99809.65;1646181;86;25400;-66
2024/03/04 04:56:07;;;;;;;37.83;22.55;;;;;;;4.32;80.75;99806.42;1646027;86;25485;-66
2024/03/04 04:58:34;;;;;;;32.30;19.00;;;;;;;4.32;80.69;99816.59;1640338;86;28353;-65
2024/03/04 05:01:01;;;;;;;36.13;19.77;;;;;;;4.34;80.82;99813.63;1645815;86;25452;-65
2024/03/04 05:03:28;;;;;;;36.70;21.07;;;;;;;4.35;80.95;99811.23;1643368;85;25580;-66
2024/03/04 05:05:54;;;;;;;30.50;18.98;;;;;;;4.34;81.15;99805.60;1644414;86;25759;-65
2024/03/04 05:08:20;;;;;;;36.63;20.45;;;;;;;4.34;81.04;99814.42;1645274;86;25839;-65
2024/03/04 05:10:46;;;;;;;33.55;19.85;;;;;;;4.31;81.20;99810.98;1645973;86;27332;-66
2024/03/04 05:13:13;;;;;;;32.45;19.25;;;;;;;4.29;81.10;99813.94;1644286;86;25585;-65
2024/03/04 05:15:39;;;;;;;27.85;18.00;;;;;;;4.30;81.48;99814.73;1645270;86;25790;-65
2024/03/04 05:18:05;;;;;;;33.02;19.65;;;;;;;4.29;81.62;99819.81;1644322;86;25646;-65
2024/03/04 05:20:32;;;;;;;28.05;17.17;;;;;;;4.26;81.64;99817.72;1644904;86;25803;-65
2024/03/04 05:22:58;;;;;;;27.00;16.17;;;;;;;4.24;81.83;99817.17;1648617;86;27344;-66
2024/03/04 05:25:24;;;;;;;29.80;17.62;;;;;;;4.22;81.98;99813.98;1646227;86;25839;-65
2024/03/04 05:27:50;;;;;;;32.98;19.70;;;;;;;4.21;82.08;99811.06;1645802;86;25768;-66
2024/03/04 05:30:17;;;;;;;31.52;20.08;;;;;;;4.22;82.03;99818.00;1648334;86;25604;-66
2024/03/04 05:32:43;;;;;;;31.12;18.30;;;;;;;4.22;82.10;99816.66;1642059;86;25643;-66
2024/03/04 05:35:11;;;;;;;34.05;20.85;;;;;;;4.23;82.21;99823.63;1635429;86;27334;-66
2024/03/04 05:37:42;;;;;;;37.98;20.20;;;;;;;4.20;82.22;99822.28;1647696;86;25693;-66
2024/03/04 05:40:11;;;;;;;30.50;20.30;;;;;;;4.17;82.65;99823.38;1647153;86;25630;-65
2024/03/04 05:42:41;;;;;;;36.38;19.87;;;;;;;4.15;82.59;99825.55;1641038;86;25903;-66
2024/03/04 05:45:09;;;;;;;36.10;20.92;;;;;;;4.16;82.75;99831.17;1646553;86;25486;-64
2024/03/04 05:47:36;;;;;;;32.88;20.15;;;;;;;4.14;82.94;99828.77;1650944;86;27907;-65
2024/03/04 05:50:05;;;;;;;32.88;20.23;;;;;;;4.17;83.17;99831.41;1644595;86;26056;-66
2024/03/04 05:52:32;;;;;;;33.30;18.83;;;;;;;4.18;83.32;99835.70;1647673;85;25509;-66
2024/03/04 05:54:58;;;;;;;32.75;19.55;;;;;;;4.19;83.24;99834.09;1641882;86;25671;-64
2024/03/04 05:57:28;;;;;;;38.75;20.68;;;;;;;4.17;83.16;99832.75;1650228;86;25471;-66
2024/03/04 05:59:54;;;;;;;31.82;19.67;;;;;;;4.17;83.28;99838.11;1643154;86;27332;-65
2024/03/04 06:02:21;;;;;;;35.08;18.82;;;;;;;4.18;83.29;99834.36;1642467;86;25414;-66
2024/03/04 06:04:47;;;;;;;31.70;19.17;;;;;;;4.19;83.22;99839.96;1645165;86;26007;-66
2024/03/04 06:07:15;;;;;;;36.17;20.17;;;;;;;4.21;83.57;99836.49;1644199;86;25867;-66
2024/03/04 06:09:43;;;;;;;34.23;19.25;;;;;;;4.21;83.50;99835.94;1644407;86;25589;-65
2024/03/04 06:12:10;;;;;;;35.63;20.10;;;;;;;4.20;83.72;99838.34;1643854;86;28107;-65
2024/03/04 06:14:37;;;;;;;33.55;18.35;;;;;;;4.23;83.71;99838.34;1645385;86;25865;-66
2024/03/04 06:17:10;;;;;;;41.05;19.82;;;;;;;4.26;83.83;99843.16;1644138;86;25764;-66
2024/03/04 06:19:33;;;;;;;;;;;;;;;4.30;83.86;99844.98;1642081;86;25509;-65
2024/03/04 06:22:00;;;;;;;31.02;16.35;;;;;;;4.34;84.03;99843.88;1648105;86;32423;-65
2024/03/04 06:24:26;;;;;;;33.85;18.45;;;;;;;4.36;83.85;99849.78;1644301;86;27711;-66
2024/03/04 06:26:53;;;;;;;32.05;17.95;;;;;;;4.42;84.06;99843.84;1647868;86;25590;-66
2024/03/04 06:29:19;;;;;;;31.07;18.23;;;;;;;4.48;84.28;99851.56;1648547;86;25485;-66
2024/03/04 06:31:46;;;;;;;34.80;19.25;;;;;;;4.53;83.98;99854.75;1646966;86;25882;-66
2024/03/04 06:34:12;;;;;;;35.68;18.95;;;;;;;4.56;83.76;99843.45;1642371;86;25729;-67
2024/03/04 06:36:42;;;;;;;33.35;19.23;;;;;;;4.58;83.37;99850.70;1642498;86;27511;-66
2024/03/04 06:39:09;;;;;;;31.93;17.05;;;;;;;4.60;83.93;99851.76;1646178;86;25832;-66
2024/03/04 06:41:37;;;;;;;33.40;18.65;;;;;;;4.63;83.35;99851.17;1640344;86;25792;-66
2024/03/04 06:44:04;;;;;;;31.65;17.77;;;;;;;4.66;83.42;99851.96;1644847;86;25497;-66
2024/03/04 06:46:33;;;;;;;34.75;17.80;;;;;;;4.68;83.58;99851.95;1648681;86;25701;-66
2024/03/04 06:49:00;;;;;;;29.50;17.57;;;;;;;4.74;83.47;99851.92;1646216;86;27447;-66
2024/03/04 06:51:31;;;;;;;34.18;20.05;;;;;;;4.77;83.22;99845.45;1644086;86;25508;-66
2024/03/04 06:53:55;;;;;;;33.58;19.85;;;;;;;4.80;83.17;99842.22;1645661;86;26442;-66
2024/03/04 06:56:21;;;;;;;40.63;20.70;;;;;;;4.83;83.19;99836.81;1645894;86;25820;-66
2024/03/04 06:58:47;;;;;;;80.10;43.45;;;;;;;4.85;82.86;99835.47;1648485;86;25489;-67
2024/03/04 07:01:14;;;;;;;57.80;36.80;;;;;;;4.91;83.13;99832.20;1648075;86;27332;-67
2024/03/04 07:03:45;;;;;;;38.53;26.25;;;;;;;4.96;83.03;99836.17;1646378;86;25733;-65
2024/03/04 07:06:13;;;;;;;33.30;19.48;;;;;;;4.97;82.81;99840.45;1645704;86;25816;-67
2024/03/04 07:08:43;;;;;;;41.90;19.73;;;;;;;4.97;82.69;99842.32;1648230;86;25806;-66
2024/03/04 07:11:13;;;;;;;34.73;19.17;;;;;;;5.03;82.71;99849.24;1644954;86;25865;-67
2024/03/04 07:13:42;;;;;;;36.75;19.45;;;;;;;5.08;82.77;99847.06;1644217;86;27638;-66
2024/03/04 07:16:17;;;;;;;;;;;;;;;5.13;82.77;99845.12;1645255;86;26029;-68
2024/03/04 07:18:44;;;;;;;34.30;18.40;;;;;;;5.18;82.41;99850.44;1645288;86;25502;-66
2024/03/04 07:21:17;;;;;;;31.55;18.85;;;;;;;5.23;82.42;99840.20;1644637;86;25626;-64
2024/03/04 07:23:44;;;;;;;35.65;19.50;;;;;;;5.27;82.30;99848.48;1644367;86;25513;-67
2024/03/04 07:26:10;;;;;;;36.38;19.87;;;;;;;5.30;82.04;99851.39;1645196;86;27588;-66
2024/03/04 07:28:40;;;;;;;33.88;20.70;;;;;;;5.32;81.43;99847.09;1648046;86;25626;-65
2024/03/04 07:31:05;;;;;;;40.58;21.40;;;;;;;5.34;81.35;99848.38;1644447;86;25853;-65
2024/03/04 07:33:31;;;;;;;34.00;19.40;;;;;;;5.39;81.11;99847.54;1645360;86;26024;-66
2024/03/04 07:35:57;;;;;;;34.88;20.50;;;;;;;5.43;81.23;99852.58;1648760;86;25437;-67
2024/03/04 07:38:23;;;;;;;39.42;21.60;;;;;;;5.48;81.31;99855.20;1645964;86;27987;-66
2024/03/04 07:40:49;;;;;;;36.77;21.17;;;;;;;5.49;80.84;99854.13;1646089;86;25818;-66
2024/03/04 07:43:16;;;;;;;36.83;20.48;;;;;;;5.48;80.49;99849.05;1648297;86;25624;-66
2024/03/04 07:45:43;;;;;;;34.92;19.73;;;;;;;5.45;80.45;99853.12;1643234;86;25436;-66
2024/03/04 07:48:09;;;;;;;37.88;20.10;;;;;;;5.43;80.46;99854.73;1634476;86;25471;-65
2024/03/04 07:50:36;;;;;;;86.45;48.55;;;;;;;5.42;80.71;99855.81;1643466;86;27204;-65
2024/03/04 07:53:02;;;;;;;54.70;29.02;;;;;;;5.47;80.92;99852.28;1640953;86;26016;-65
2024/03/04 07:55:28;;;;;;;45.67;25.10;;;;;;;5.52;80.72;99856.80;1641397;85;25432;-55
2024/03/04 07:57:55;;;;;;;42.08;22.62;;;;;;;5.60;81.24;99853.47;1642551;86;25644;-54
2024/03/04 08:00:22;;;;;;;40.98;20.80;;;;;;;5.67;81.13;99857.97;1646170;86;25638;-52
2024/03/04 08:02:49;;;;;;;35.83;20.50;;;;;;;5.74;80.94;99862.44;1643793;86;27427;-52
2024/03/04 08:05:16;;;;;;;40.25;22.10;;;;;;;5.78;80.71;99861.31;1647182;86;25647;-56
2024/03/04 08:07:43;;;;;;;38.13;20.48;;;;;;;5.82;80.47;99858.86;1645456;86;25859;-53
2024/03/04 08:10:10;;;;;;;96.97;88.87;;;;;;;5.84;80.40;99863.39;1641836;86;26378;-54
2024/03/04 08:12:37;;;;;;;53.95;40.78;;;;;;;5.83;80.39;99865.83;1648810;86;25476;-53
2024/03/04 08:15:06;;;;;;;36.15;21.52;;;;;;;5.87;80.37;99866.84;1647526;86;27651;-55
2024/03/04 08:17:33;;;;;;;39.90;22.62;;;;;;;5.87;80.03;99873.00;1637564;86;25492;-57
2024/03/04 08:20:04;;;;;;;35.30;20.52;;;;;;;5.87;79.83;99877.02;1644407;87;25480;-56
2024/03/04 08:22:32;;;;;;;36.35;22.73;;;;;;;5.82;79.82;99876.30;1645989;85;25939;-52
2024/03/04 08:24:59;;;;;;;40.52;22.73;;;;;;;5.77;79.98;99875.28;1645659;86;25494;-57
2024/03/04 08:27:26;;;;;;;43.05;24.02;;;;;;;5.77;80.08;99878.49;1646272;86;28018;-56
2024/03/04 08:29:52;;;;;;;41.45;23.95;;;;;;;5.74;80.06;99878.53;1645817;85;25862;-55
2024/03/04 08:32:18;;;;;;;40.40;22.73;;;;;;;5.72;80.30;99878.55;1652179;86;25856;-54
2024/03/04 08:34:49;;;;;;;31.40;21.05;;;;;;;5.74;80.55;99882.56;1647587;86;25480;-55
2024/03/04 08:37:16;;;;;;;39.25;21.90;;;;;;;5.73;80.19;99886.32;1643974;86;25644;-56
2024/03/04 08:39:42;;;;;;;33.83;20.08;;;;;;;5.72;80.32;99886.61;1646283;86;27330;-53
2024/03/04 08:42:09;;;;;;;47.00;21.42;;;;;;;5.73;80.36;99891.69;1643421;86;25472;-53
2024/03/04 08:44:36;;;;;;;36.48;20.25;;;;;;;5.73;80.39;99893.03;1647581;86;25629;-54
2024/03/04 08:47:06;;;;;;;46.85;29.63;;;;;;;5.74;80.44;99891.17;1644488;87;26004;-63
2024/03/04 08:49:33;;;;;;;93.62;57.80;;;;;;;5.75;80.53;99892.75;1646520;86;25453;-63
2024/03/04 08:52:01;;;;;;;94.77;60.20;;;;;;;5.79;80.65;99896.47;1646731;85;27303;-65
2024/03/04 08:54:31;;;;;;;48.15;27.25;;;;;;;5.84;80.70;99893.73;1645723;86;26135;-65
2024/03/04 08:56:56;;;;;;;39.78;25.85;;;;;;;5.88;80.61;99896.09;1648172;86;25524;-54
2024/03/04 08:59:22;;;;;;;35.23;19.37;;;;;;;5.89;80.36;99890.16;1649780;86;25505;-54
2024/03/04 09:01:48;;;;;;;39.08;21.60;;;;;;;5.90;80.36;99891.77;1643714;86;25458;-53
2024/03/04 09:04:16;;;;;;;35.13;19.80;;;;;;;5.93;80.64;99892.55;1645391;86;28462;-56
2024/03/04 09:06:43;;;;;;;36.95;19.10;;;;;;;5.95;80.52;99889.81;1644523;86;25495;-53
2024/03/04 09:09:11;;;;;;;35.13;20.40;;;;;;;5.98;80.64;99894.65;1651171;86;25481;-53
2024/03/04 09:11:38;;;;;;;38.92;19.50;;;;;;;6.00;80.52;99888.99;1638768;86;25789;-56
2024/03/04 09:14:05;;;;;;;44.70;33.00;;;;;;;6.02;80.42;99886.81;1649423;86;25781;-56
2024/03/04 09:16:32;;;;;;;37.90;20.48;;;;;;;6.05;80.36;99890.82;1646110;86;27431;-56
2024/03/04 09:18:58;;;;;;;42.23;20.75;;;;;;;6.04;79.94;99883.29;1646558;86;25576;-56
2024/03/04 09:21:25;;;;;;;46.02;29.87;;;;;;;6.03;80.14;99890.28;1645929;86;25885;-55
2024/03/04 09:23:53;;;;;;;38.13;20.85;;;;;;;6.04;80.18;99895.37;1633680;86;25444;-56
2024/03/04 09:26:20;;;;;;;60.88;36.70;;;;;;;6.04;80.33;99895.92;1649780;85;25501;-70
2024/03/04 09:28:51;;;;;;;159.40;99.60;;;;;;;6.05;80.30;99886.24;1644592;86;27785;-70
2024/03/04 09:31:19;;;;;;;54.45;29.92;;;;;;;6.06;80.34;99893.22;1646329;86;25814;-68
2024/03/04 09:33:47;;;;;;;92.65;84.07;;;;;;;6.12;80.49;99896.63;1641210;86;25635;-58
2024/03/04 09:36:15;;;;;;;91.03;82.00;;;;;;;6.16;80.74;99882.87;1645702;86;25923;-56
2024/03/04 09:38:44;;;;;;;77.83;64.33;;;;;;;;;;1642189;86;25924;-53
2024/03/04 09:41:11;;;;;;;47.67;24.92;;;;;;;;;;1644412;85;27073;-54
2024/03/04 09:43:38;;;;;;;44.83;24.57;;;;;;;;;;1642800;86;26432;-55
2024/03/04 09:46:08;;;;;;;43.10;25.95;;;;;;;;;;1637548;86;25516;-56
2024/03/04 09:48:37;;;;;;;44.35;25.40;;;;;;;;;;1649965;86;25505;-55
2024/03/04 09:51:09;;;;;;;42.58;25.23;;;;;;;;;;1646151;86;25540;-56
2024/03/04 09:53:37;;;;;;;41.53;25.17;;;;;;;;;;1649921;86;27938;-53
2024/03/04 09:56:05;;;;;;;49.65;25.23;;;;;;;;;;1642303;86;25927;-57
2024/03/04 09:58:35;;;;;;;46.20;26.17;;;;;;;;;;1646598;86;25638;-56
2024/03/04 10:01:02;;;;;;;43.13;26.33;;;;;;;;;;1644397;86;25540;-55
2024/03/04 10:03:30;;;;;;;45.03;25.90;;;;;;;;;;1644635;86;25885;-53
2024/03/04 10:05:57;;;;;;;46.45;24.05;;;;;;;;;;1645389;86;29487;-56
2024/03/04 10:08:24;;;;;;;43.38;25.37;;;;;;;;;;1643694;86;25522;-56
2024/03/04 10:10:51;;;;;;;42.80;24.20;;;;;;;;;;1644396;86;25529;-55
2024/03/04 10:13:18;;;;;;;44.13;25.55;;;;;;;;;;1647327;86;25842;-56
2024/03/04 10:15:46;;;;;;;44.20;24.90;;;;;;;;;;1647831;86;25708;-57
2024/03/04 10:18:13;;;;;;;42.20;24.82;;;;;;;;;;1646877;86;27345;-54
2024/03/04 10:20:39;;;;;;;42.43;25.05;;;;;;;;;;1644782;86;26365;-54
2024/03/04 10:23:07;;;;;;;40.78;24.60;;;;;;;;;;1641255;86;25593;-56
2024/03/04 10:25:34;;;;;;;45.25;26.02;;;;;;;;;;1635811;86;25841;-56
2024/03/04 10:28:00;;;;;;;43.42;25.45;;;;;;;;;;1655869;85;25669;-53
2024/03/04 10:30:27;;;;;;;40.92;24.47;;;;;;;;;;1638529;86;27242;-56
2024/03/04 10:32:59;;;;;;;41.68;23.27;;;;;;;;;;1645443;86;25752;-54
2024/03/04 10:35:27;;;;;;;39.90;24.57;;;;;;;;;;1642950;86;25661;-57
2024/03/04 10:37:59;;;;;;;53.65;30.40;;;;;;;;;;1645636;86;26500;-68
2024/03/04 10:40:26;;;;;;;57.50;36.17;;;;;;;;;;1646580;86;25513;-67
2024/03/04 10:42:52;;;;;;;45.98;25.92;;;;;;;;;;1643774;86;27594;-63
2024/03/04 10:45:18;;;;;;;45.55;24.52;;;;;;;;;;1644311;86;33162;-67
2024/03/04 10:47:45;;;;;;;40.75;23.27;;;;;;;;;;1646402;86;25864;-67
2024/03/04 10:50:14;;;;;;;43.90;23.47;;;;;;;;;;1646040;86;26098;-66
2024/03/04 10:52:43;;;;;;;52.78;25.12;;;;;;;;;;1643367;86;25847;-68
2024/03/04 10:55:11;;;;;;;43.98;24.67;;;;;;;;;;1643405;86;27952;-67
2024/03/04 10:57:41;;;;;;;39.80;24.02;;;;;;;;;;1647890;86;25492;-67
2024/03/04 11:03:03;;;;;;;43.70;24.07;;;;;;;;;;1646552;86;26367;-67
2024/03/04 11:05:33;;;;;;;47.60;22.37;;;;;;;;;;1647184;86;25594;-66
2024/03/04 11:08:27;;;;;;;39.45;23.70;;;;;;;;;;1642962;86;27311;-67
2024/03/04 11:10:55;;;;;;;41.92;24.30;;;;;;;;;;1645684;86;25653;-68
2024/03/04 11:13:41;;;;;;;44.25;23.50;;;;;;;;;;1640442;85;25851;-68
2024/03/04 11:16:18;;;;;;;47.60;24.60;;;;;;;;;;1645405;86;25899;-69
2024/03/04 11:18:56;;;;;;;45.80;25.05;;;;;;;;;;1644569;86;25537;-69
2024/03/04 11:21:23;;;;;;;43.58;24.67;;;;;;;;;;1650587;86;27473;-67
2024/03/04 11:23:51;;;;;;;42.70;23.90;;;;;;;;;;1645874;86;25418;-68
2024/03/04 11:26:18;;;;;;;39.67;23.75;;;;;;;;;;1626725;87;25867;-68
2024/03/04 11:28:46;;;;;;;41.02;23.55;;;;;;;;;;1641385;86;25811;-68
2024/03/04 11:31:28;;;;;;;41.55;24.52;;;;;;;;;;1648081;85;25543;-69
2024/03/04 11:34:05;;;;;;;46.63;24.70;;;;;;;;;;1645357;86;27332;-69
2024/03/04 11:36:32;;;;;;;42.53;23.87;;;;;;;;;;1646483;86;25654;-67
2024/03/04 11:39:01;;;;;;;39.33;23.35;;;;;;;;;;1652097;85;25505;-67
2024/03/04 11:41:47;;;;;;;41.65;22.95;;;;;;;;;;1647428;86;25493;-67
2024/03/04 11:44:28;;;;;;;40.63;22.77;;;;;;;;;;1648478;85;25451;-68
2024/03/04 11:46:56;;;;;;;44.55;22.95;;;;;;;;;;1645668;86;27502;-68
2024/03/04 11:49:28;;;;;;;39.15;23.18;;;;;;;;;;1643638;86;25947;-67
2024/03/04 11:52:04;;;;;;;47.10;23.25;;;;;;;;;;1639898;86;25573;-68
2024/03/04 11:54:37;;;;;;;35.08;21.57;;;;;;;;;;1649523;86;26058;-68
2024/03/04 11:57:06;;;;;;;41.53;23.40;;;;;;;;;;1645420;86;25693;-68
2024/03/04 11:59:33;;;;;;;50.67;31.82;;;;;;;;;;1642009;86;28032;-68